Sighetu Marmatiei, Romania
Current Conditions -  °F | °C
As of 9:30 AM on Friday 31 Oct 2014 (Local Time) from LRBM Reporting Station
Haze Haze  
Wind Chill: 37°   Ceiling: 900
Heat Index: 37°   Visibility: 1.8mi
Dew Point: 37°   Wind: 2mph
Humidity: 100%   Direction: 110°ESE
Pressure: 30.33"   Gusts: NA
Location:  47.93°N, 23.91°E
Report Text: LRBM 310630Z 11002KT 3000 BR BKN009 03/03 Q1027
Loading
Personal Weather Stations






























Interactive Weather Map
Tropical Storm Tracking
New forecast layout! Learn more

10-Day Weather Forecast

Advertisements
Track Severe Weather on mobile